Grave, Netherlands
Current Conditions -  °F | °C
As of 12:25 PM on Friday 31 Oct 2014 (Local Time) from EHVK Reporting Station
Overcast Overcast  
Wind Chill: 63°   Ceiling: 20000
Heat Index: 63°   Visibility: 6mi
Dew Point: 55°   Wind: 8mph
Humidity: 77%   Direction: 190°S
Pressure: 30.18"   Gusts: NA
Location:  51.76°N, 5.74°E
Report Text: EHVK 311125Z AUTO 19007KT 9999 BKN200 OVC260 17/13 Q1022 BLU 20007KT CAVOK
Loading
Personal Weather Stations






























Interactive Weather Map
Tropical Storm Tracking
New forecast layout! Learn more

10-Day Weather Forecast

Advertisements
Track Severe Weather on mobile